Time,TemperatureF,DewpointF,PressureIn,WindDirection,WindDirectionDegrees,WindSpeedMPH,WindSpeedGustMPH,Humidity,HourlyPrecipIn,Conditions,Clouds,dailyrainin,SoftwareType,DateUTC
2014-07-29 00:05:00,57.3,51.2,29.99,WNW,292,2.0,2.0,80,0.00,,,0.00,Wunderground v.1.15,2014-07-29 04:05:00,
2014-07-29 00:10:00,57.3,50.8,29.99,NW,305,1.0,2.0,79,0.00,,,0.00,Wunderground v.1.15,2014-07-29 04:10:00,
2014-07-29 00:20:00,57.1,51.0,29.99,WSW,250,1.0,1.0,80,0.00,,,0.00,Wunderground v.1.15,2014-07-29 04:20:00,
2014-07-29 00:25:00,56.9,50.8,30.00,WNW,298,0.0,1.0,80,0.00,,,0.00,Wunderground v.1.15,2014-07-29 04:25:00,
2014-07-29 00:30:00,56.6,50.5,30.00,NW,314,0.0,0.0,80,0.00,,,0.00,Wunderground v.1.15,2014-07-29 04:30:00,
2014-07-29 00:35:00,56.4,50.6,30.00,NW,314,0.0,0.0,81,0.00,,,0.00,Wunderground v.1.15,2014-07-29 04:35:00,
2014-07-29 00:40:00,56.2,50.4,30.00,NW,304,0.0,0.0,81,0.00,,,0.00,Wunderground v.1.15,2014-07-29 04:40:00,
2014-07-29 00:50:00,55.7,50.3,30.00,WNW,291,0.0,0.0,82,0.00,,,0.00,Wunderground v.1.15,2014-07-29 04:50:00,
2014-07-29 01:00:00,55.1,50.0,30.00,WNW,291,0.0,0.0,83,0.00,,,0.00,Wunderground v.1.15,2014-07-29 05:00:00,
2014-07-29 01:10:00,54.3,49.9,30.00,WNW,291,0.0,0.0,85,0.00,,,0.00,Wunderground v.1.15,2014-07-29 05:10:00,
2014-07-29 01:20:00,53.5,49.7,30.00,WNW,291,0.0,0.0,87,0.00,,,0.00,Wunderground v.1.15,2014-07-29 05:20:00,
2014-07-29 01:30:00,53.5,49.7,30.00,West,278,0.0,0.0,87,0.00,,,0.00,Wunderground v.1.15,2014-07-29 05:30:00,
2014-07-29 01:40:00,53.0,49.5,30.00,West,278,0.0,0.0,88,0.00,,,0.00,Wunderground v.1.15,2014-07-29 05:40:00,
2014-07-29 01:50:00,52.8,49.3,30.00,West,274,0.0,0.0,88,0.00,,,0.00,Wunderground v.1.15,2014-07-29 05:50:00,
2014-07-29 02:00:00,52.8,49.3,30.00,WNW,284,0.0,0.0,88,0.00,,,0.00,Wunderground v.1.15,2014-07-29 06:00:00,
2014-07-29 02:10:00,53.0,49.5,30.00,NW,318,0.0,0.0,88,0.00,,,0.00,Wunderground v.1.15,2014-07-29 06:10:00,
2014-07-29 02:15:00,52.9,49.4,30.00,NW,312,0.0,0.0,88,0.00,,,0.00,Wunderground v.1.15,2014-07-29 06:15:00,
2014-07-29 02:20:00,52.9,49.4,30.00,West,263,0.0,0.0,88,0.00,,,0.00,Wunderground v.1.15,2014-07-29 06:20:00,
2014-07-29 02:30:00,52.4,49.3,30.00,West,263,0.0,0.0,89,0.00,,,0.00,Wunderground v.1.15,2014-07-29 06:30:00,
2014-07-29 02:35:00,52.1,49.3,30.00,West,267,0.0,0.0,90,0.00,,,0.00,Wunderground v.1.15,2014-07-29 06:35:00,
2014-07-29 02:45:00,51.8,49.3,30.00,West,267,0.0,0.0,91,0.00,,,0.00,Wunderground v.1.15,2014-07-29 06:45:00,
2014-07-29 02:50:00,51.7,49.2,30.00,West,269,0.0,0.0,91,0.00,,,0.00,Wunderground v.1.15,2014-07-29 06:50:00,
2014-07-29 03:00:00,51.5,49.3,30.00,WNW,284,0.0,0.0,92,0.00,,,0.00,Wunderground v.1.15,2014-07-29 07:00:00,
2014-07-29 03:10:00,51.2,48.7,29.99,WNW,284,0.0,0.0,91,0.00,,,0.00,Wunderground v.1.15,2014-07-29 07:10:00,
2014-07-29 03:20:00,51.1,48.9,29.99,NW,323,0.0,0.0,92,0.00,,,0.00,Wunderground v.1.15,2014-07-29 07:20:00,
2014-07-29 03:30:00,51.0,48.8,29.99,WNW,294,0.0,0.0,92,0.00,,,0.00,Wunderground v.1.15,2014-07-29 07:30:00,
2014-07-29 03:40:00,50.8,48.6,29.99,WNW,293,0.0,0.0,92,0.00,,,0.00,Wunderground v.1.15,2014-07-29 07:40:00,
2014-07-29 03:45:00,50.5,48.6,29.99,WNW,293,0.0,0.0,93,0.00,,,0.00,Wunderground v.1.15,2014-07-29 07:45:00,
2014-07-29 03:55:00,49.9,48.2,29.99,WNW,294,0.0,0.0,94,0.00,,,0.00,Wunderground v.1.15,2014-07-29 07:55:00,
2014-07-29 04:05:00,49.7,48.3,29.99,WNW,293,0.0,0.0,95,0.00,,,0.00,Wunderground v.1.15,2014-07-29 08:05:00,
2014-07-29 04:15:00,49.4,47.7,29.99,WNW,294,0.0,0.0,94,0.00,,,0.00,Wunderground v.1.15,2014-07-29 08:15:00,
2014-07-29 04:20:00,49.3,47.9,29.99,WNW,294,0.0,0.0,95,0.00,,,0.00,Wunderground v.1.15,2014-07-29 08:20:00,
2014-07-29 04:30:00,49.2,47.8,29.99,WNW,294,0.0,0.0,95,0.00,,,0.00,Wunderground v.1.15,2014-07-29 08:30:00,
2014-07-29 04:40:00,48.9,47.5,29.99,WNW,294,0.0,0.0,95,0.00,,,0.00,Wunderground v.1.15,2014-07-29 08:40:00,
2014-07-29 04:50:00,48.7,47.6,29.99,WNW,294,0.0,0.0,96,0.00,,,0.00,Wunderground v.1.15,2014-07-29 08:50:00,
2014-07-29 05:00:00,48.6,47.5,29.99,WNW,293,0.0,0.0,96,0.00,,,0.00,Wunderground v.1.15,2014-07-29 09:00:00,
2014-07-29 05:10:00,48.3,47.2,29.99,WNW,294,0.0,0.0,96,0.00,,,0.00,Wunderground v.1.15,2014-07-29 09:10:00,
2014-07-29 05:15:00,48.2,47.1,29.99,WNW,293,0.0,0.0,96,0.00,,,0.00,Wunderground v.1.15,2014-07-29 09:15:00,
2014-07-29 05:25:00,48.2,47.1,30.00,WNW,294,0.0,0.0,96,0.00,,,0.00,Wunderground v.1.15,2014-07-29 09:25:00,
2014-07-29 05:35:00,48.2,47.1,30.00,WNW,294,0.0,0.0,96,0.00,,,0.00,Wunderground v.1.15,2014-07-29 09:35:00,
2014-07-29 05:40:00,48.2,47.1,30.00,WNW,293,0.0,0.0,96,0.00,,,0.00,Wunderground v.1.15,2014-07-29 09:40:00,
2014-07-29 05:50:00,47.9,46.8,30.00,WNW,293,0.0,0.0,96,0.00,,,0.00,Wunderground v.1.15,2014-07-29 09:50:00,
2014-07-29 05:55:00,47.8,46.7,30.00,WNW,294,0.0,0.0,96,0.00,,,0.00,Wunderground v.1.15,2014-07-29 09:55:00,
2014-07-29 06:05:00,47.5,46.4,30.00,WNW,294,0.0,0.0,96,0.00,,,0.00,Wunderground v.1.15,2014-07-29 10:05:00,
2014-07-29 06:10:00,47.7,46.9,30.00,WNW,293,0.0,0.0,97,0.00,,,0.00,Wunderground v.1.15,2014-07-29 10:10:00,
2014-07-29 06:20:00,47.9,47.1,30.00,WNW,294,0.0,0.0,97,0.00,,,0.00,Wunderground v.1.15,2014-07-29 10:20:00,
2014-07-29 06:25:00,47.8,47.0,30.00,WNW,294,0.0,0.0,97,0.00,,,0.00,Wunderground v.1.15,2014-07-29 10:25:00,
2014-07-29 06:35:00,47.8,47.0,30.01,WNW,294,0.0,0.0,97,0.00,,,0.00,Wunderground v.1.15,2014-07-29 10:35:00,
2014-07-29 06:45:00,47.4,46.3,30.01,WNW,293,0.0,0.0,96,0.00,,,0.00,Wunderground v.1.15,2014-07-29 10:45:00,
2014-07-29 06:55:00,47.3,46.5,30.01,WNW,294,0.0,0.0,97,0.00,,,0.00,Wunderground v.1.15,2014-07-29 10:55:00,
2014-07-29 07:05:00,47.7,46.9,30.01,WNW,294,0.0,0.0,97,0.00,,,0.00,Wunderground v.1.15,2014-07-29 11:05:00,
2014-07-29 07:15:00,48.3,47.5,30.01,NW,306,0.0,1.0,97,0.00,,,0.00,Wunderground v.1.15,2014-07-29 11:15:00,
2014-07-29 07:25:00,48.7,47.9,30.01,NW,309,0.0,0.0,97,0.00,,,0.00,Wunderground v.1.15,2014-07-29 11:25:00,
2014-07-29 07:35:00,49.0,48.2,30.02,WNW,293,0.0,0.0,97,0.00,,,0.00,Wunderground v.1.15,2014-07-29 11:35:00,
2014-07-29 07:45:00,49.4,48.6,30.02,WNW,295,0.0,0.0,97,0.00,,,0.00,Wunderground v.1.15,2014-07-29 11:45:00,
2014-07-29 07:55:00,49.8,48.7,30.02,WNW,303,0.0,0.0,96,0.00,,,0.00,Wunderground v.1.15,2014-07-29 11:55:00,
2014-07-29 08:05:00,50.0,48.9,30.02,WNW,285,0.0,2.0,96,0.00,,,0.00,Wunderground v.1.15,2014-07-29 12:05:00,
2014-07-29 08:15:00,50.5,49.1,30.03,WNW,300,1.0,1.0,95,0.00,,,0.00,Wunderground v.1.15,2014-07-29 12:15:00,
2014-07-29 08:20:00,50.8,49.4,30.03,NNW,335,2.0,3.0,95,0.00,,,0.00,Wunderground v.1.15,2014-07-29 12:20:00,
2014-07-29 08:25:00,51.0,49.6,30.03,NW,316,2.0,3.0,95,0.00,,,0.00,Wunderground v.1.15,2014-07-29 12:25:00,
2014-07-29 08:35:00,51.6,49.9,30.03,WNW,287,1.0,1.0,94,0.00,,,0.00,Wunderground v.1.15,2014-07-29 12:35:00,
2014-07-29 08:45:00,52.1,50.1,30.03,NW,307,1.0,2.0,93,0.00,,,0.00,Wunderground v.1.15,2014-07-29 12:45:00,
2014-07-29 08:55:00,52.8,50.5,30.04,NW,322,2.0,2.0,92,0.00,,,0.00,Wunderground v.1.15,2014-07-29 12:55:00,
2014-07-29 09:00:00,53.3,51.0,30.04,NNW,336,2.0,2.0,92,0.00,,,0.00,Wunderground v.1.15,2014-07-29 13:00:00,
2014-07-29 09:05:00,53.6,51.0,30.04,NW,305,2.0,2.0,91,0.00,,,0.00,Wunderground v.1.15,2014-07-29 13:05:00,
2014-07-29 09:15:00,54.2,51.6,30.04,NNW,343,1.0,1.0,91,0.00,,,0.00,Wunderground v.1.15,2014-07-29 13:15:00,
2014-07-29 09:20:00,54.7,51.8,30.04,NW,319,1.0,2.0,90,0.00,,,0.00,Wunderground v.1.15,2014-07-29 13:20:00,
2014-07-29 09:30:00,55.2,52.0,30.05,North,349,2.0,2.0,89,0.00,,,0.00,Wunderground v.1.15,2014-07-29 13:30:00,
2014-07-29 09:40:00,56.5,53.0,30.05,NW,311,0.0,1.0,88,0.00,,,0.00,Wunderground v.1.15,2014-07-29 13:40:00,
2014-07-29 09:50:00,57.4,53.6,30.05,West,259,1.0,1.0,87,0.00,,,0.00,Wunderground v.1.15,2014-07-29 13:50:00,
2014-07-29 10:00:00,58.3,53.2,30.05,NNW,342,1.0,2.0,83,0.00,,,0.00,Wunderground v.1.15,2014-07-29 14:00:00,
2014-07-29 10:10:00,58.6,53.5,30.05,WSW,256,1.0,1.0,83,0.00,,,0.00,Wunderground v.1.15,2014-07-29 14:10:00,
2014-07-29 10:20:00,59.3,53.5,30.05,NNE,20,1.0,1.0,81,0.00,,,0.00,Wunderground v.1.15,2014-07-29 14:20:00,
2014-07-29 10:30:00,60.4,53.9,30.05,WNW,302,1.0,2.0,79,0.00,,,0.00,Wunderground v.1.15,2014-07-29 14:30:00,
2014-07-29 10:40:00,61.1,53.1,30.05,North,352,1.0,1.0,75,0.00,,,0.00,Wunderground v.1.15,2014-07-29 14:40:00,
2014-07-29 10:50:00,62.1,53.3,30.05,WNW,290,0.0,4.0,73,0.00,,,0.00,Wunderground v.1.15,2014-07-29 14:50:00,
2014-07-29 11:00:00,62.3,52.4,30.06,ENE,74,2.0,2.0,70,0.00,,,0.00,Wunderground v.1.15,2014-07-29 15:00:00,
2014-07-29 11:10:00,62.9,52.2,30.06,NNE,19,1.0,1.0,68,0.00,,,0.00,Wunderground v.1.15,2014-07-29 15:10:00,
2014-07-29 11:15:00,63.4,51.8,30.06,East,90,1.0,1.0,66,0.00,,,0.00,Wunderground v.1.15,2014-07-29 15:15:00,
2014-07-29 11:20:00,63.7,51.3,30.06,North,355,1.0,1.0,64,0.00,,,0.00,Wunderground v.1.15,2014-07-29 15:20:00,
2014-07-29 11:30:00,64.3,51.0,30.06,NW,313,1.0,1.0,62,0.00,,,0.00,Wunderground v.1.15,2014-07-29 15:30:00,
2014-07-29 11:35:00,64.2,50.9,30.06,North,355,1.0,1.0,62,0.00,,,0.00,Wunderground v.1.15,2014-07-29 15:35:00,
2014-07-29 11:45:00,65.2,51.4,30.06,NNW,329,1.0,2.0,61,0.00,,,0.00,Wunderground v.1.15,2014-07-29 15:45:00,
2014-07-29 11:50:00,65.5,51.2,30.06,NNE,27,1.0,1.0,60,0.00,,,0.00,Wunderground v.1.15,2014-07-29 15:50:00,
2014-07-29 12:00:00,65.4,51.1,30.06,NNW,329,2.0,2.0,60,0.00,,,0.00,Wunderground v.1.15,2014-07-29 16:00:00,
2014-07-29 12:10:00,65.7,51.0,30.06,WNW,298,1.0,4.0,59,0.00,,,0.00,Wunderground v.1.15,2014-07-29 16:10:00,
2014-07-29 12:20:00,66.1,51.8,30.06,ENE,63,1.0,1.0,60,0.00,,,0.00,Wunderground v.1.15,2014-07-29 16:20:00,
2014-07-29 12:30:00,66.0,51.7,30.06,NW,305,2.0,2.0,60,0.00,,,0.00,Wunderground v.1.15,2014-07-29 16:30:00,
2014-07-29 12:40:00,66.4,51.6,30.06,NNE,12,1.0,1.0,59,0.00,,,0.00,Wunderground v.1.15,2014-07-29 16:40:00,
2014-07-29 12:50:00,67.8,53.9,30.06,NNW,341,1.0,1.0,61,0.00,,,0.00,Wunderground v.1.15,2014-07-29 16:50:00,
2014-07-29 13:00:00,67.8,52.0,30.06,SE,124,2.0,2.0,57,0.00,,,0.00,Wunderground v.1.15,2014-07-29 17:00:00,
2014-07-29 13:10:00,67.1,50.4,30.06,WNW,302,2.0,2.0,55,0.00,,,0.00,Wunderground v.1.15,2014-07-29 17:10:00,
2014-07-29 13:20:00,68.2,51.4,30.05,WNW,294,1.0,3.0,55,0.00,,,0.00,Wunderground v.1.15,2014-07-29 17:20:00,
2014-07-29 13:30:00,68.5,51.7,30.06,NW,309,3.0,3.0,55,0.00,,,0.00,Wunderground v.1.15,2014-07-29 17:30:00,
2014-07-29 13:40:00,68.8,52.9,30.05,SW,221,1.0,1.0,57,0.00,,,0.00,Wunderground v.1.15,2014-07-29 17:40:00,
2014-07-29 13:50:00,69.4,52.0,30.05,North,1,1.0,1.0,54,0.00,,,0.00,Wunderground v.1.15,2014-07-29 17:50:00,
2014-07-29 14:00:00,69.6,51.7,30.05,NW,305,2.0,3.0,53,0.00,,,0.00,Wunderground v.1.15,2014-07-29 18:00:00,